Terminal Aerodrome Forecast
Issued by NWS Sioux Falls, SD

Home | Current Version | Previous Version | Graphics & Text | Print | Product List | Glossary On
Versions: 1 2 3 4 5 6 7 8 9 10 11 12 13 14 15 16 17 18 19 20
825
FTUS43 KFSD 022327
TAFFSD
TAF
KFSD 022327Z 0300/0324 02026G34KT 1/4SM SN BLSN OVC015
     FM030100 36021G29KT 1/2SM BLSN OVC008
     FM031100 34016G24KT 2SM BLSN OVC015
     FM031200 34016G24KT P6SM OVC015
     FM031600 33012KT P6SM BKN060=

USA.gov is the U.S. government's official web portal to all federal, state and local government web resources and services.